Time;durP1;ratioP1;P1;durP2;ratioP2;P2;SDS_P1;SDS_P2;PMS_P1;PMS_P2;Temp;Humidity;BMP_temperature;BMP_pressure;BME280_temperature;BME280_humidity;BME280_pressure;Samples;Min_cycle;Max_cycle;Signal;HPM_P1;HPM_P2
2023/01/20 00:01:11;;;;;;;50.65;22.77;;;;;;;;;;4878729;29;20314;-78
2023/01/20 00:03:39;;;;;;;26.83;15.18;;;;;;;;;;4890899;28;20048;-78
2023/01/20 00:06:06;;;;;;;24.88;15.32;;;;;;;;;;4904977;29;20096;-79
2023/01/20 00:08:33;;;;;;;20.33;13.43;;;;;;;;;;4921148;29;20036;-78
2023/01/20 00:11:04;;;;;;;19.02;12.27;;;;;;;;;;4907439;28;20091;-77
2023/01/20 00:13:32;;;;;;;19.67;13.18;;;;;;;;;;4908378;28;20107;-78
2023/01/20 00:16:01;;;;;;;17.50;12.68;;;;;;;;;;4903940;29;20112;-78
2023/01/20 00:18:28;;;;;;;19.13;12.80;;;;;;;;;;4976015;28;20052;-79
2023/01/20 00:20:55;;;;;;;20.88;12.65;;;;;;;;;;4889971;29;20132;-79
2023/01/20 00:23:22;;;;;;;19.48;13.07;;;;;;;;;;4962351;28;20546;-79
2023/01/20 00:25:49;;;;;;;17.73;12.90;;;;;;;;;;4896370;29;20049;-78
2023/01/20 00:28:16;;;;;;;17.10;11.73;;;;;;;;;;4878765;29;20432;-79
2023/01/20 00:30:42;;;;;;;18.80;11.20;;;;;;;;;;4880820;29;20051;-79
2023/01/20 00:33:09;;;;;;;17.25;11.90;;;;;;;;;;4899271;28;20075;-79
2023/01/20 00:35:37;;;;;;;18.52;11.57;;;;;;;;;;4883384;29;20063;-78
2023/01/20 00:38:03;;;;;;;14.95;10.93;;;;;;;;;;4953889;28;20159;-79
2023/01/20 00:40:30;;;;;;;14.20;10.75;;;;;;;;;;4876886;29;20416;-79
2023/01/20 00:42:57;;;;;;;17.95;11.30;;;;;;;;;;4889244;28;20067;-79
2023/01/20 00:45:24;;;;;;;17.48;11.35;;;;;;;;;;4907055;29;20056;-79
2023/01/20 00:47:50;;;;;;;16.00;10.93;;;;;;;;;;4875059;29;20048;-79
2023/01/20 00:50:17;;;;;;;15.82;10.30;;;;;;;;;;4890609;28;20060;-79
2023/01/20 00:52:44;;;;;;;17.65;11.23;;;;;;;;;;4871154;28;20052;-79
2023/01/20 00:55:11;;;;;;;16.23;10.93;;;;;;;;;;4898317;28;20170;-79
2023/01/20 00:57:38;;;;;;;14.05;10.65;;;;;;;;;;4886320;29;20122;-79
2023/01/20 01:00:05;;;;;;;15.93;11.35;;;;;;;;;;4872179;29;20052;-79
2023/01/20 01:02:37;;;;;;;17.95;11.38;;;;;;;;;;4885841;29;20052;-78
2023/01/20 01:05:04;;;;;;;15.38;10.65;;;;;;;;;;4902655;28;20134;-78
2023/01/20 01:07:31;;;;;;;16.40;11.00;;;;;;;;;;4870933;29;20052;-78
2023/01/20 01:09:58;;;;;;;16.55;11.05;;;;;;;;;;4886099;29;20424;-77
2023/01/20 01:12:25;;;;;;;16.70;11.25;;;;;;;;;;4872370;29;20044;-80
2023/01/20 01:14:51;;;;;;;18.63;11.20;;;;;;;;;;4890361;28;20066;-80
2023/01/20 01:17:18;;;;;;;14.77;10.80;;;;;;;;;;4880812;29;20059;-79
2023/01/20 01:19:45;;;;;;;18.02;11.88;;;;;;;;;;4875457;29;20517;-78
2023/01/20 01:22:12;;;;;;;14.32;10.75;;;;;;;;;;4881199;28;20055;-79
2023/01/20 01:24:39;;;;;;;16.30;10.82;;;;;;;;;;4871668;28;20516;-79
2023/01/20 01:27:06;;;;;;;14.73;10.85;;;;;;;;;;4880768;29;20047;-79
2023/01/20 01:29:32;;;;;;;15.70;10.32;;;;;;;;;;4877211;29;20059;-79
2023/01/20 01:31:59;;;;;;;15.85;10.52;;;;;;;;;;4886727;28;20058;-78
2023/01/20 01:34:26;;;;;;;16.80;10.68;;;;;;;;;;4870153;28;20048;-79
2023/01/20 01:36:53;;;;;;;15.95;12.15;;;;;;;;;;4871180;29;20083;-79
2023/01/20 01:39:20;;;;;;;16.85;11.05;;;;;;;;;;4869584;29;20499;-79
2023/01/20 01:41:46;;;;;;;17.33;11.55;;;;;;;;;;4873120;28;20386;-78
2023/01/20 01:44:13;;;;;;;16.15;11.02;;;;;;;;;;4870443;29;20052;-79
2023/01/20 01:46:41;;;;;;;15.48;11.43;;;;;;;;;;4873283;29;20162;-79
2023/01/20 01:49:28;;;;;;;15.43;10.65;;;;;;;;;;4888146;29;20142;-78
2023/01/20 01:52:03;;;;;;;15.63;10.82;;;;;;;;;;4890176;29;20094;-79
2023/01/20 01:54:32;;;;;;;21.75;13.32;;;;;;;;;;4881263;28;20475;-79
2023/01/20 01:56:59;;;;;;;16.67;11.55;;;;;;;;;;4887826;29;20060;-79
2023/01/20 01:59:26;;;;;;;18.52;12.70;;;;;;;;;;4870750;29;20052;-80
2023/01/20 02:01:53;;;;;;;18.15;12.27;;;;;;;;;;4880321;28;20053;-80
2023/01/20 02:04:22;;;;;;;17.50;12.57;;;;;;;;;;4868074;28;20130;-80
2023/01/20 02:07:00;;;;;;;18.58;12.13;;;;;;;;;;4869837;29;20163;-80
2023/01/20 02:09:27;;;;;;;18.98;12.20;;;;;;;;;;4873429;29;20052;-79
2023/01/20 02:11:57;;;;;;;17.85;12.27;;;;;;;;;;4968673;28;20151;-79
2023/01/20 02:14:26;;;;;;;17.98;12.57;;;;;;;;;;4875180;28;20058;-80
2023/01/20 02:17:32;;;;;;;17.73;12.82;;;;;;;;;;4870444;29;20079;-79
2023/01/20 02:20:08;;;;;;;20.27;14.60;;;;;;;;;;4890052;29;20057;-79
2023/01/20 02:22:52;;;;;;;19.02;14.48;;;;;;;;;;4901349;29;20085;-78
2023/01/20 02:25:59;;;;;;;21.90;14.43;;;;;;;;;;4893971;29;20058;-79
2023/01/20 02:28:50;;;;;;;20.63;14.40;;;;;;;;;;4888074;29;20067;-80
2023/01/20 02:31:20;;;;;;;19.30;13.73;;;;;;;;;;4908595;29;20058;-79
2023/01/20 02:33:50;;;;;;;20.50;14.52;;;;;;;;;;4910725;28;20064;-80
2023/01/20 02:36:28;;;;;;;17.60;13.77;;;;;;;;;;4914427;29;20511;-79
2023/01/20 02:38:57;;;;;;;19.88;13.95;;;;;;;;;;4905361;29;20078;-80
2023/01/20 02:41:37;;;;;;;19.58;13.27;;;;;;;;;;4902799;29;20122;-80
2023/01/20 02:44:09;;;;;;;19.08;14.35;;;;;;;;;;4917270;28;20072;-79
2023/01/20 02:47:02;;;;;;;20.35;13.32;;;;;;;;;;4928290;29;20044;-79
2023/01/20 02:51:57;;;;;;;22.67;14.07;;;;;;;;;;4590660;27;15061808;-78
2023/01/20 02:54:26;;;;;;;17.02;13.02;;;;;;;;;;5113954;27;20471;-80
2023/01/20 02:56:53;;;;;;;21.23;14.25;;;;;;;;;;5114920;27;20077;-80
2023/01/20 02:59:22;;;;;;;18.38;14.40;;;;;;;;;;5121723;27;20103;-80
2023/01/20 03:02:01;;;;;;;19.55;13.80;;;;;;;;;;5131474;27;20054;-78
2023/01/20 03:04:32;;;;;;;19.67;13.70;;;;;;;;;;5111376;27;20142;-78
2023/01/20 03:06:59;;;;;;;22.02;14.45;;;;;;;;;;5114114;27;20054;-78
2023/01/20 03:09:31;;;;;;;19.15;14.43;;;;;;;;;;5113162;27;20077;-78
2023/01/20 03:12:01;;;;;;;18.80;13.70;;;;;;;;;;5115545;27;20057;-79
2023/01/20 03:14:27;;;;;;;16.90;13.15;;;;;;;;;;5116032;27;20130;-79
2023/01/20 03:16:54;;;;;;;20.42;14.48;;;;;;;;;;5118884;27;20049;-79
2023/01/20 03:19:21;;;;;;;21.73;13.48;;;;;;;;;;5138113;27;20046;-80
2023/01/20 03:21:48;;;;;;;17.70;12.65;;;;;;;;;;5157554;27;20074;-80
2023/01/20 03:24:15;;;;;;;21.17;13.65;;;;;;;;;;5140520;27;20455;-79
2023/01/20 03:26:42;;;;;;;19.17;13.32;;;;;;;;;;5140952;27;20039;-80
2023/01/20 03:29:14;;;;;;;20.55;14.60;;;;;;;;;;5139795;28;20107;-80
2023/01/20 03:31:51;;;;;;;23.30;14.38;;;;;;;;;;5137593;28;20153;-80
2023/01/20 03:34:19;;;;;;;17.60;13.52;;;;;;;;;;5146444;27;20037;-80
2023/01/20 03:36:46;;;;;;;25.42;14.63;;;;;;;;;;5137218;28;20062;-79
2023/01/20 03:39:13;;;;;;;16.42;12.50;;;;;;;;;;5133328;27;20047;-79
2023/01/20 03:41:43;;;;;;;19.88;13.98;;;;;;;;;;5140131;27;20054;-79
2023/01/20 03:44:11;;;;;;;23.13;13.35;;;;;;;;;;5162232;27;20070;-79
2023/01/20 03:47:09;;;;;;;18.90;14.05;;;;;;;;;;5135731;28;20103;-79
2023/01/20 03:50:14;;;;;;;20.23;14.65;;;;;;;;;;5162888;27;20043;-79
2023/01/20 03:52:55;;;;;;;20.25;13.85;;;;;;;;;;5160405;27;20043;-78
2023/01/20 03:55:27;;;;;;;18.23;13.88;;;;;;;;;;5138998;27;20118;-78
2023/01/20 03:58:02;;;;;;;16.75;11.60;;;;;;;;;;5133640;27;20050;-78
2023/01/20 04:00:30;;;;;;;21.58;14.80;;;;;;;;;;5132579;27;20063;-78
2023/01/20 04:02:57;;;;;;;21.40;14.70;;;;;;;;;;5115097;28;20051;-78
2023/01/20 04:05:24;;;;;;;22.73;15.23;;;;;;;;;;5139288;27;20054;-78
2023/01/20 04:07:51;;;;;;;17.75;13.98;;;;;;;;;;5119185;28;20078;-78
2023/01/20 04:10:18;;;;;;;18.45;14.00;;;;;;;;;;5125115;27;20074;-78
2023/01/20 04:12:44;;;;;;;18.77;14.98;;;;;;;;;;5122596;27;20051;-78
2023/01/20 04:15:11;;;;;;;19.10;13.63;;;;;;;;;;5120728;27;20053;-78
2023/01/20 04:17:38;;;;;;;20.67;13.63;;;;;;;;;;5131747;27;20047;-78
2023/01/20 04:20:07;;;;;;;19.90;14.27;;;;;;;;;;5121119;27;20217;-78
2023/01/20 04:22:52;;;;;;;18.60;14.60;;;;;;;;;;5114349;27;20665;-78
2023/01/20 04:25:26;;;;;;;19.52;13.75;;;;;;;;;;5105709;27;20057;-78
2023/01/20 04:27:53;;;;;;;20.73;14.43;;;;;;;;;;5114041;27;20499;-78
2023/01/20 04:30:20;;;;;;;19.33;14.68;;;;;;;;;;5110618;27;20047;-77
2023/01/20 04:32:47;;;;;;;20.02;13.18;;;;;;;;;;5094627;27;20054;-77
2023/01/20 04:35:15;;;;;;;20.48;15.32;;;;;;;;;;5112885;27;20053;-78
2023/01/20 04:37:42;;;;;;;20.13;15.00;;;;;;;;;;5097114;27;20523;-78
2023/01/20 04:40:10;;;;;;;23.10;15.77;;;;;;;;;;5096799;27;20138;-78
2023/01/20 04:42:37;;;;;;;18.60;13.85;;;;;;;;;;5095293;27;20047;-77
2023/01/20 04:45:04;;;;;;;20.80;14.57;;;;;;;;;;5095984;27;20134;-77
2023/01/20 04:47:32;;;;;;;20.02;14.77;;;;;;;;;;5096454;27;20065;-76
2023/01/20 04:49:59;;;;;;;24.67;15.15;;;;;;;;;;5096236;27;20053;-77
2023/01/20 04:52:26;;;;;;;20.20;14.63;;;;;;;;;;5095782;27;20509;-77
2023/01/20 04:54:52;;;;;;;19.70;15.25;;;;;;;;;;5095664;27;20525;-77
2023/01/20 04:57:19;;;;;;;20.73;15.45;;;;;;;;;;5096399;27;20050;-77
2023/01/20 04:59:46;;;;;;;22.17;15.30;;;;;;;;;;5088081;27;20069;-77
2023/01/20 05:02:13;;;;;;;21.02;14.65;;;;;;;;;;5128823;27;20047;-77
2023/01/20 05:04:40;;;;;;;21.25;15.48;;;;;;;;;;5093913;27;20500;-76
2023/01/20 05:07:06;;;;;;;20.65;14.82;;;;;;;;;;5095234;27;20051;-77
2023/01/20 05:09:33;;;;;;;23.48;15.40;;;;;;;;;;5095872;27;20054;-78
2023/01/20 05:12:00;;;;;;;19.25;14.65;;;;;;;;;;5095797;27;20046;-78
2023/01/20 05:14:27;;;;;;;21.65;15.07;;;;;;;;;;5094758;27;20055;-76
2023/01/20 05:16:53;;;;;;;21.48;15.55;;;;;;;;;;5108965;27;20059;-76
2023/01/20 05:19:20;;;;;;;22.38;16.10;;;;;;;;;;5095766;27;20043;-76
2023/01/20 05:21:47;;;;;;;20.27;14.82;;;;;;;;;;5095363;27;20055;-75
2023/01/20 05:24:14;;;;;;;23.33;15.68;;;;;;;;;;5092556;27;20075;-77
2023/01/20 05:26:40;;;;;;;23.85;15.18;;;;;;;;;;5109706;27;20114;-76
2023/01/20 05:29:08;;;;;;;21.08;14.68;;;;;;;;;;5135814;27;20047;-77
2023/01/20 05:31:36;;;;;;;22.45;15.65;;;;;;;;;;5118658;27;20039;-76
2023/01/20 05:34:03;;;;;;;20.13;14.85;;;;;;;;;;5116357;27;20095;-76
2023/01/20 05:36:31;;;;;;;19.60;14.50;;;;;;;;;;5115355;27;20069;-76
2023/01/20 05:38:58;;;;;;;19.27;14.38;;;;;;;;;;5115238;27;20063;-76
2023/01/20 05:41:25;;;;;;;19.70;13.95;;;;;;;;;;5116864;27;20036;-76
2023/01/20 05:43:54;;;;;;;19.10;14.30;;;;;;;;;;5113735;27;20836;-76
2023/01/20 05:46:21;;;;;;;18.40;15.00;;;;;;;;;;5115051;27;20054;-78
2023/01/20 05:48:48;;;;;;;26.42;17.83;;;;;;;;;;5127079;27;20050;-77
2023/01/20 05:51:15;;;;;;;31.23;19.25;;;;;;;;;;5129337;27;20035;-82
2023/01/20 05:53:43;;;;;;;24.98;19.05;;;;;;;;;;5121515;27;20094;-83
2023/01/20 05:56:14;;;;;;;26.02;18.30;;;;;;;;;;5113369;27;20043;-82
2023/01/20 05:58:41;;;;;;;21.33;16.20;;;;;;;;;;5099429;27;20051;-81
2023/01/20 06:01:10;;;;;;;23.65;16.50;;;;;;;;;;5093670;28;20047;-82
2023/01/20 06:03:38;;;;;;;22.95;16.88;;;;;;;;;;5094408;27;20480;-82
2023/01/20 06:06:06;;;;;;;21.10;14.45;;;;;;;;;;5107609;27;20107;-82
2023/01/20 06:08:34;;;;;;;19.85;13.80;;;;;;;;;;5123861;27;20059;-82
2023/01/20 06:11:01;;;;;;;18.05;13.57;;;;;;;;;;5104682;27;20039;-81
2023/01/20 06:13:28;;;;;;;17.52;12.82;;;;;;;;;;5106991;27;20502;-82
2023/01/20 06:15:55;;;;;;;16.70;13.13;;;;;;;;;;5114543;27;20051;-81
2023/01/20 06:18:23;;;;;;;18.33;13.27;;;;;;;;;;5114083;27;20039;-82
2023/01/20 06:20:50;;;;;;;16.08;13.40;;;;;;;;;;5112173;27;20101;-81
2023/01/20 06:23:17;;;;;;;16.73;12.73;;;;;;;;;;5109769;27;20198;-81
2023/01/20 06:25:44;;;;;;;18.88;13.00;;;;;;;;;;5088082;27;20047;-80
2023/01/20 06:28:10;;;;;;;16.60;12.60;;;;;;;;;;5110778;27;20063;-79
2023/01/20 06:30:37;;;;;;;19.35;12.77;;;;;;;;;;5133448;27;20043;-78
2023/01/20 06:33:09;;;;;;;18.15;12.88;;;;;;;;;;5116774;27;20051;-79
2023/01/20 06:35:36;;;;;;;18.20;13.65;;;;;;;;;;5100224;27;20119;-78
2023/01/20 06:38:03;;;;;;;14.55;12.60;;;;;;;;;;5100084;27;20077;-79
2023/01/20 06:40:30;;;;;;;16.65;12.95;;;;;;;;;;5098051;28;20400;-82
2023/01/20 06:42:58;;;;;;;19.65;13.68;;;;;;;;;;5095148;27;20051;-80
2023/01/20 06:45:24;;;;;;;20.05;12.55;;;;;;;;;;5095495;28;20074;-80
2023/01/20 06:47:51;;;;;;;16.20;12.80;;;;;;;;;;5110797;28;20055;-81
2023/01/20 06:50:18;;;;;;;17.83;13.13;;;;;;;;;;5112320;28;20414;-80
2023/01/20 06:52:45;;;;;;;17.55;12.93;;;;;;;;;;5094198;28;20059;-79
2023/01/20 06:55:11;;;;;;;21.65;15.00;;;;;;;;;;5109062;28;20051;-82
2023/01/20 06:57:39;;;;;;;19.77;14.20;;;;;;;;;;5098823;28;20068;-84
2023/01/20 07:00:06;;;;;;;18.65;13.38;;;;;;;;;;5101773;28;20130;-83
2023/01/20 07:02:33;;;;;;;17.20;12.25;;;;;;;;;;5105843;28;20050;-82
2023/01/20 07:05:00;;;;;;;18.58;13.15;;;;;;;;;;5120118;28;20517;-83
2023/01/20 07:07:27;;;;;;;17.02;13.18;;;;;;;;;;5094933;28;20081;-83
2023/01/20 07:09:54;;;;;;;16.63;12.73;;;;;;;;;;5103564;28;20047;-83
2023/01/20 07:12:21;;;;;;;18.52;13.02;;;;;;;;;;5115531;28;20043;-83
2023/01/20 07:14:48;;;;;;;17.50;12.82;;;;;;;;;;5096404;28;20130;-82
2023/01/20 07:17:14;;;;;;;20.25;13.27;;;;;;;;;;5096784;28;20077;-82
2023/01/20 07:19:41;;;;;;;16.40;12.40;;;;;;;;;;5100171;28;20115;-83
2023/01/20 07:22:08;;;;;;;17.52;13.05;;;;;;;;;;5104363;28;20065;-82
2023/01/20 07:24:35;;;;;;;21.17;13.05;;;;;;;;;;5106925;28;20051;-82
2023/01/20 07:27:01;;;;;;;38.70;20.08;;;;;;;;;;5098593;28;20126;-80
2023/01/20 07:29:28;;;;;;;28.25;17.40;;;;;;;;;;5098801;28;20479;-80
2023/01/20 07:31:55;;;;;;;32.75;18.70;;;;;;;;;;5114435;28;20050;-80
2023/01/20 07:34:22;;;;;;;27.10;17.80;;;;;;;;;;5096519;28;20498;-81
2023/01/20 07:36:52;;;;;;;28.27;18.02;;;;;;;;;;5096573;27;20047;-80
2023/01/20 07:39:19;;;;;;;18.75;14.18;;;;;;;;;;5099788;27;20047;-81
2023/01/20 07:41:48;;;;;;;19.33;13.65;;;;;;;;;;5099314;27;20059;-81
2023/01/20 07:44:15;;;;;;;18.33;12.60;;;;;;;;;;5099460;27;20043;-80
2023/01/20 07:46:42;;;;;;;16.90;12.70;;;;;;;;;;5099356;27;20101;-83
2023/01/20 07:49:09;;;;;;;18.92;12.90;;;;;;;;;;5099461;27;20491;-83
2023/01/20 07:51:38;;;;;;;16.83;12.70;;;;;;;;;;5099398;27;20126;-81
2023/01/20 07:54:05;;;;;;;17.05;13.48;;;;;;;;;;5096909;27;20414;-79
2023/01/20 07:56:32;;;;;;;16.90;12.75;;;;;;;;;;5099356;27;20082;-82
2023/01/20 07:58:59;;;;;;;29.52;16.02;;;;;;;;;;5099700;27;20057;-82
2023/01/20 08:01:28;;;;;;;24.40;15.90;;;;;;;;;;5115802;27;20051;-81
2023/01/20 08:03:55;;;;;;;22.52;14.25;;;;;;;;;;5100213;27;20051;-81
2023/01/20 08:06:23;;;;;;;18.27;13.43;;;;;;;;;;5097946;27;20078;-82
2023/01/20 08:08:50;;;;;;;22.00;14.70;;;;;;;;;;5099586;27;20138;-81
2023/01/20 08:11:18;;;;;;;18.40;12.73;;;;;;;;;;5097970;27;20048;-81
2023/01/20 08:13:46;;;;;;;26.20;14.52;;;;;;;;;;5098867;27;20122;-83
2023/01/20 08:16:14;;;;;;;24.42;14.20;;;;;;;;;;5098917;27;20095;-83
2023/01/20 08:18:41;;;;;;;22.65;13.48;;;;;;;;;;5098419;27;20055;-81
2023/01/20 08:21:26;;;;;;;22.63;14.43;;;;;;;;;;5099311;27;20043;-81
2023/01/20 08:23:57;;;;;;;18.85;12.93;;;;;;;;;;5098948;27;20046;-81
2023/01/20 08:26:25;;;;;;;20.27;12.88;;;;;;;;;;5097332;27;20039;-80
2023/01/20 08:28:51;;;;;;;19.15;12.88;;;;;;;;;;5098229;27;20586;-81
2023/01/20 08:31:21;;;;;;;20.88;12.40;;;;;;;;;;5102519;27;20106;-81
2023/01/20 08:33:53;;;;;;;17.35;11.45;;;;;;;;;;5097305;27;20048;-81
2023/01/20 08:36:22;;;;;;;20.58;13.70;;;;;;;;;;5101817;27;20066;-81
2023/01/20 08:38:49;;;;;;;18.25;12.65;;;;;;;;;;5105663;27;20061;-81
2023/01/20 08:41:20;;;;;;;16.90;12.25;;;;;;;;;;5102537;27;20039;-81
2023/01/20 08:43:47;;;;;;;17.45;12.40;;;;;;;;;;5115728;27;20047;-81
2023/01/20 08:46:15;;;;;;;17.13;11.57;;;;;;;;;;5099609;27;20104;-80
2023/01/20 08:48:42;;;;;;;15.57;10.85;;;;;;;;;;5100257;27;20051;-81
2023/01/20 08:51:15;;;;;;;14.80;10.70;;;;;;;;;;5099132;27;20594;-80
2023/01/20 08:53:43;;;;;;;13.23;10.65;;;;;;;;;;5099344;27;20058;-80
2023/01/20 08:56:10;;;;;;;16.20;11.07;;;;;;;;;;5099359;27;20482;-82
2023/01/20 08:58:37;;;;;;;15.05;10.88;;;;;;;;;;5098943;27;20053;-82
2023/01/20 09:01:09;;;;;;;13.65;9.32;;;;;;;;;;5098859;27;20075;-81
2023/01/20 09:03:36;;;;;;;15.00;10.65;;;;;;;;;;5114848;27;20077;-82
2023/01/20 09:06:03;;;;;;;15.07;9.48;;;;;;;;;;5098418;27;20081;-81
2023/01/20 09:08:31;;;;;;;13.88;10.32;;;;;;;;;;5098374;27;20053;-81
2023/01/20 09:11:09;;;;;;;14.27;10.07;;;;;;;;;;5097993;27;20137;-82
2023/01/20 09:13:36;;;;;;;14.57;10.15;;;;;;;;;;5092379;27;20113;-81
2023/01/20 09:16:03;;;;;;;17.73;10.70;;;;;;;;;;5102256;27;20073;-81
2023/01/20 09:18:30;;;;;;;15.32;11.10;;;;;;;;;;5098466;27;20111;-81
2023/01/20 09:20:58;;;;;;;14.50;10.23;;;;;;;;;;5114145;27;20411;-82
2023/01/20 09:23:25;;;;;;;19.10;11.82;;;;;;;;;;5100265;27;20126;-81
2023/01/20 09:25:52;;;;;;;15.38;10.50;;;;;;;;;;5101933;27;20057;-81
2023/01/20 09:28:19;;;;;;;14.25;10.25;;;;;;;;;;5101004;27;20047;-81
2023/01/20 09:30:45;;;;;;;14.90;10.60;;;;;;;;;;5101075;27;20047;-82
2023/01/20 09:33:13;;;;;;;15.10;10.70;;;;;;;;;;5108686;27;20047;-82
2023/01/20 09:35:40;;;;;;;16.27;11.65;;;;;;;;;;5101791;27;20434;-81
2023/01/20 09:44:11;;;;;;;14.63;11.45;;;;;;;;;;5130426;27;20417;-81
2023/01/20 09:46:38;;;;;;;16.58;10.70;;;;;;;;;;5118302;27;20143;-82
2023/01/20 09:55:12;;;;;;;16.20;10.60;;;;;;;;;;5134664;27;20055;-82
2023/01/20 09:57:40;;;;;;;15.48;11.77;;;;;;;;;;5099216;27;20058;-82
2023/01/20 10:00:12;;;;;;;15.05;10.50;;;;;;;;;;5102548;27;20047;-82
2023/01/20 10:02:40;;;;;;;14.30;9.95;;;;;;;;;;5099997;27;20044;-82
2023/01/20 10:05:11;;;;;;;13.73;10.00;;;;;;;;;;5099766;27;20079;-82
2023/01/20 10:07:55;;;;;;;12.52;9.05;;;;;;;;;;5099240;27;20107;-82
2023/01/20 10:10:36;;;;;;;13.60;9.07;;;;;;;;;;5120225;27;20047;-82
2023/01/20 10:13:07;;;;;;;12.25;9.18;;;;;;;;;;5100880;27;20047;-82
2023/01/20 10:15:37;;;;;;;12.40;9.52;;;;;;;;;;5095927;27;20577;-82
2023/01/20 10:18:15;;;;;;;13.90;8.18;;;;;;;;;;5114783;27;20050;-81
2023/01/20 10:21:07;;;;;;;11.82;8.70;;;;;;;;;;5114941;27;20133;-82
2023/01/20 10:23:52;;;;;;;13.88;9.80;;;;;;;;;;5113003;27;20054;-82
2023/01/20 10:26:43;;;;;;;13.05;9.38;;;;;;;;;;5127166;27;20089;-82
2023/01/20 10:29:15;;;;;;;13.98;9.93;;;;;;;;;;5096303;27;20061;-82
2023/01/20 10:31:51;;;;;;;12.68;9.95;;;;;;;;;;5094955;27;20086;-82
2023/01/20 10:34:19;;;;;;;15.23;10.48;;;;;;;;;;5097052;27;20055;-82
2023/01/20 10:36:49;;;;;;;19.10;11.88;;;;;;;;;;5097949;27;20053;-81
2023/01/20 10:39:28;;;;;;;13.68;9.23;;;;;;;;;;5105834;28;20119;-81
2023/01/20 10:42:15;;;;;;;15.55;8.98;;;;;;;;;;5112867;27;20114;-81
2023/01/20 10:44:42;;;;;;;11.75;8.93;;;;;;;;;;5084992;28;20063;-83
2023/01/20 10:47:19;;;;;;;13.60;9.63;;;;;;;;;;5096757;27;20054;-82
2023/01/20 10:50:20;;;;;;;12.68;8.75;;;;;;;;;;5116879;28;20047;-82
2023/01/20 10:53:10;;;;;;;12.85;9.05;;;;;;;;;;5131729;28;20047;-81
2023/01/20 10:55:45;;;;;;;11.93;8.65;;;;;;;;;;5101754;28;20066;-82
2023/01/20 10:58:43;;;;;;;14.73;8.68;;;;;;;;;;5123562;27;20050;-82
2023/01/20 11:01:15;;;;;;;15.13;9.35;;;;;;;;;;5096112;28;20121;-82
2023/01/20 11:03:44;;;;;;;15.65;9.65;;;;;;;;;;5096187;28;20051;-82
2023/01/20 11:06:24;;;;;;;12.45;9.43;;;;;;;;;;5102566;28;20059;-83
2023/01/20 11:08:51;;;;;;;15.57;9.73;;;;;;;;;;5099506;28;20051;-82
2023/01/20 11:11:20;;;;;;;19.60;10.35;;;;;;;;;;5099400;27;20519;-81
2023/01/20 11:13:50;;;;;;;16.38;10.65;;;;;;;;;;5103492;27;20047;-82
2023/01/20 11:16:23;;;;;;;16.08;9.73;;;;;;;;;;5104668;27;20047;-83
2023/01/20 11:19:05;;;;;;;13.32;8.70;;;;;;;;;;5102984;27;20053;-83
2023/01/20 11:21:35;;;;;;;12.63;7.60;;;;;;;;;;5102476;27;20051;-83
2023/01/20 11:24:24;;;;;;;15.13;8.65;;;;;;;;;;5103095;27;20306;-82
2023/01/20 11:26:51;;;;;;;12.82;8.05;;;;;;;;;;5110539;27;20043;-82
2023/01/20 11:29:18;;;;;;;12.07;7.75;;;;;;;;;;5101382;27;20078;-81
2023/01/20 11:31:52;;;;;;;11.90;7.82;;;;;;;;;;5126860;27;20447;-82
2023/01/20 11:34:19;;;;;;;12.02;8.00;;;;;;;;;;5100943;27;20131;-82
2023/01/20 11:36:46;;;;;;;11.60;6.80;;;;;;;;;;5127121;27;20043;-82
2023/01/20 11:39:27;;;;;;;12.25;7.00;;;;;;;;;;5118550;27;20047;-83
2023/01/20 11:42:23;;;;;;;10.35;6.65;;;;;;;;;;5111120;27;20162;-83
2023/01/20 11:45:00;;;;;;;11.48;8.45;;;;;;;;;;5128004;27;20330;-81
2023/01/20 11:47:59;;;;;;;11.60;8.18;;;;;;;;;;5123211;27;20080;-82
2023/01/20 11:50:32;;;;;;;12.20;7.13;;;;;;;;;;5134442;27;20050;-83
2023/01/20 11:53:11;;;;;;;;;;;;;;;;;;5117705;27;20043;-83
2023/01/20 11:55:53;;;;;;;10.32;7.03;;;;;;;;;;5152942;27;19923;-83
2023/01/20 11:58:25;;;;;;;11.18;8.70;;;;;;;;;;5119002;27;20073;-82
2023/01/20 12:01:01;;;;;;;12.23;7.65;;;;;;;;;;5118558;27;20425;-82
2023/01/20 12:03:52;;;;;;;13.07;8.30;;;;;;;;;;5112019;27;20107;-83
2023/01/20 12:06:57;;;;;;;10.23;7.15;;;;;;;;;;5135939;27;20074;-82
2023/01/20 12:09:29;;;;;;;7.70;5.75;;;;;;;;;;5074678;27;20122;-82
2023/01/20 12:12:21;;;;;;;7.60;4.95;;;;;;;;;;5100558;27;20138;-82
2023/01/20 12:14:51;;;;;;;7.85;4.90;;;;;;;;;;5095373;27;20143;-82
2023/01/20 12:17:40;;;;;;;5.43;4.03;;;;;;;;;;5101930;27;20130;-82
2023/01/20 12:20:15;;;;;;;8.85;5.05;;;;;;;;;;5102308;27;20073;-74
2023/01/20 12:23:20;;;;;;;10.60;5.60;;;;;;;;;;5122082;27;20228;-74
2023/01/20 12:25:58;;;;;;;11.38;6.57;;;;;;;;;;5130046;27;20051;-75
2023/01/20 12:28:28;;;;;;;8.05;5.25;;;;;;;;;;5097177;27;20043;-74
2023/01/20 12:31:06;;;;;;;6.00;4.22;;;;;;;;;;5124801;27;20048;-81
2023/01/20 12:33:37;;;;;;;7.47;4.65;;;;;;;;;;5107479;27;20413;-82
2023/01/20 12:36:04;;;;;;;6.05;4.63;;;;;;;;;;5103408;27;20495;-82
2023/01/20 12:39:08;;;;;;;8.55;4.63;;;;;;;;;;5130873;27;20051;-81
2023/01/20 12:41:57;;;;;;;4.45;3.40;;;;;;;;;;5079124;27;20051;-83
2023/01/20 12:44:32;;;;;;;7.22;4.90;;;;;;;;;;5112005;28;20047;-82
2023/01/20 12:47:28;;;;;;;9.98;5.32;;;;;;;;;;5119056;27;20111;-83
2023/01/20 12:50:08;;;;;;;5.40;4.43;;;;;;;;;;5119435;27;20380;-83
2023/01/20 12:52:47;;;;;;;4.93;4.20;;;;;;;;;;5113595;27;20054;-82
2023/01/20 12:55:33;;;;;;;6.72;4.68;;;;;;;;;;5128727;27;20051;-83
2023/01/20 12:58:30;;;;;;;6.55;3.88;;;;;;;;;;5124503;27;20510;-82
2023/01/20 13:01:22;;;;;;;5.47;4.85;;;;;;;;;;5081071;27;20051;-83
2023/01/20 13:03:56;;;;;;;7.68;5.20;;;;;;;;;;5126870;27;20414;-83
2023/01/20 13:06:35;;;;;;;6.45;5.22;;;;;;;;;;5111292;27;20065;-82
2023/01/20 13:09:18;;;;;;;8.10;5.72;;;;;;;;;;5124511;27;20049;-83
2023/01/20 13:12:04;;;;;;;7.05;4.75;;;;;;;;;;5130605;27;20073;-82
2023/01/20 13:14:52;;;;;;;10.00;5.20;;;;;;;;;;5129318;27;20054;-83
2023/01/20 13:17:33;;;;;;;8.05;5.05;;;;;;;;;;5099644;27;20039;-84
2023/01/20 13:20:03;;;;;;;8.75;5.28;;;;;;;;;;5128927;27;20051;-84
2023/01/20 13:22:30;;;;;;;7.82;5.70;;;;;;;;;;5114734;27;20165;-86
2023/01/20 13:24:57;;;;;;;6.70;4.68;;;;;;;;;;5097105;27;20076;-84
2023/01/20 13:27:28;;;;;;;8.85;5.35;;;;;;;;;;5098009;27;20405;-84
2023/01/20 13:29:57;;;;;;;7.50;5.20;;;;;;;;;;5116610;27;20046;-84
2023/01/20 13:32:52;;;;;;;10.73;5.18;;;;;;;;;;5126947;27;20075;-85
2023/01/20 13:35:19;;;;;;;7.35;4.70;;;;;;;;;;5099659;27;20133;-83
2023/01/20 13:37:57;;;;;;;6.93;5.03;;;;;;;;;;5124667;27;20419;-81
2023/01/20 13:40:36;;;;;;;6.85;5.18;;;;;;;;;;5101008;27;20076;-82
2023/01/20 13:43:25;;;;;;;7.93;6.07;;;;;;;;;;5140121;27;20051;-84
2023/01/20 13:46:04;;;;;;;8.70;5.38;;;;;;;;;;5136780;27;20062;-84
2023/01/20 13:48:35;;;;;;;6.82;5.70;;;;;;;;;;5147204;27;20038;-83
2023/01/20 13:51:14;;;;;;;10.18;6.22;;;;;;;;;;5112839;27;20055;-84
2023/01/20 13:53:42;;;;;;;11.05;6.28;;;;;;;;;;5130649;27;20049;-82
2023/01/20 13:56:29;;;;;;;9.50;5.75;;;;;;;;;;5100138;27;20458;-82
2023/01/20 13:58:57;;;;;;;11.50;6.78;;;;;;;;;;5096078;27;20043;-81
2023/01/20 14:01:24;;;;;;;7.40;5.65;;;;;;;;;;5116480;27;20047;-81
2023/01/20 14:04:04;;;;;;;10.80;6.13;;;;;;;;;;5097449;27;20043;-80
2023/01/20 14:06:32;;;;;;;9.18;6.78;;;;;;;;;;5108084;27;20578;-80
2023/01/20 14:09:00;;;;;;;7.78;5.82;;;;;;;;;;5097542;27;20134;-80
2023/01/20 14:11:28;;;;;;;8.82;6.13;;;;;;;;;;5098360;27;20477;-81
2023/01/20 14:14:00;;;;;;;8.75;5.70;;;;;;;;;;5097131;27;20431;-81
2023/01/20 14:16:29;;;;;;;7.80;5.28;;;;;;;;;;5126425;27;20678;-80
2023/01/20 14:19:01;;;;;;;7.82;5.63;;;;;;;;;;5098033;27;20074;-80
2023/01/20 14:21:29;;;;;;;10.52;5.60;;;;;;;;;;5097888;27;20057;-80
2023/01/20 14:23:57;;;;;;;6.47;5.25;;;;;;;;;;5097552;27;20063;-80
2023/01/20 14:26:28;;;;;;;9.52;5.35;;;;;;;;;;5096328;27;20039;-80
2023/01/20 14:28:57;;;;;;;9.32;5.00;;;;;;;;;;5091523;28;20069;-81
2023/01/20 14:31:40;;;;;;;10.98;6.57;;;;;;;;;;5123812;27;20049;-80
2023/01/20 14:34:21;;;;;;;9.77;6.43;;;;;;;;;;5098160;27;20326;-80
2023/01/20 14:36:48;;;;;;;8.55;5.68;;;;;;;;;;5125034;27;20048;-79
2023/01/20 14:39:21;;;;;;;14.25;8.65;;;;;;;;;;5095928;27;20099;-79
2023/01/20 14:41:53;;;;;;;12.77;6.85;;;;;;;;;;5095948;28;20047;-80
2023/01/20 14:44:24;;;;;;;13.20;7.47;;;;;;;;;;5095337;27;20047;-80
2023/01/20 14:46:56;;;;;;;9.18;5.90;;;;;;;;;;5094607;27;20044;-81
2023/01/20 14:49:38;;;;;;;10.45;5.63;;;;;;;;;;5104964;28;20100;-81
2023/01/20 14:52:06;;;;;;;9.07;5.82;;;;;;;;;;5105972;28;20073;-81
2023/01/20 14:54:41;;;;;;;8.52;5.43;;;;;;;;;;5101454;28;20121;-81
2023/01/20 14:57:25;;;;;;;12.32;6.07;;;;;;;;;;5094305;28;20052;-82
2023/01/20 15:00:17;;;;;;;8.57;6.28;;;;;;;;;;5095206;28;20487;-82
2023/01/20 15:03:08;;;;;;;11.27;6.28;;;;;;;;;;5129143;28;20053;-82
2023/01/20 15:05:50;;;;;;;10.25;6.32;;;;;;;;;;5116467;28;20059;-83